createdAt,value
2023-01-29T00:01:33.047Z,100935.78
2023-01-29T00:04:02.992Z,100943.41
2023-01-29T00:06:33.760Z,100943.78
2023-01-29T00:09:07.016Z,100936.84
2023-01-29T00:11:38.265Z,100940.88
2023-01-29T00:14:09.052Z,100950.47
2023-01-29T00:16:39.051Z,100955.25
2023-01-29T00:19:09.838Z,100950.00
2023-01-29T00:21:39.489Z,100941.94
2023-01-29T00:24:12.245Z,100945.09
2023-01-29T00:26:43.573Z,100944.63
2023-01-29T00:29:14.137Z,100948.63
2023-01-29T00:31:47.721Z,100955.44
2023-01-29T00:34:17.847Z,100951.00
2023-01-29T00:36:48.149Z,100952.97
2023-01-29T00:39:31.413Z,100965.38
2023-01-29T00:42:23.154Z,100965.75
2023-01-29T00:45:03.331Z,100960.50
2023-01-29T00:47:34.017Z,100962.47
2023-01-29T00:50:05.911Z,100950.44
2023-01-29T00:52:36.912Z,100951.59
2023-01-29T00:55:11.868Z,100947.97
2023-01-29T00:57:42.725Z,100950.34
2023-01-29T01:00:17.417Z,100955.94
2023-01-29T01:03:04.959Z,100953.47
2023-01-29T01:05:35.575Z,100956.66
2023-01-29T01:08:26.848Z,100961.44
2023-01-29T01:11:05.343Z,100961.81
2023-01-29T01:13:36.503Z,100958.53
2023-01-29T01:16:13.309Z,100949.63
2023-01-29T01:18:44.122Z,100950.84
2023-01-29T01:21:14.201Z,100957.63
2023-01-29T01:23:44.362Z,100953.19
2023-01-29T01:26:15.819Z,100955.53
2023-01-29T01:28:46.097Z,100944.53
2023-01-29T01:31:18.604Z,100946.75
2023-01-29T01:33:48.684Z,100950.97
2023-01-29T01:36:18.831Z,100949.25
2023-01-29T01:38:49.163Z,100951.16
2023-01-29T01:41:23.268Z,100944.22
2023-01-29T01:43:57.864Z,100945.75
2023-01-29T01:46:32.038Z,100940.03
2023-01-29T01:49:08.154Z,100948.00
2023-01-29T01:51:45.103Z,100937.47
2023-01-29T01:54:22.100Z,100946.25
2023-01-29T01:57:05.284Z,100951.41
2023-01-29T01:59:37.882Z,100945.31
2023-01-29T02:02:26.749Z,100939.69
2023-01-29T02:05:13.673Z,100946.50
2023-01-29T02:08:05.723Z,100941.22
2023-01-29T02:10:44.590Z,100933.97
2023-01-29T02:13:19.028Z,100946.03
2023-01-29T02:15:49.974Z,100940.75
2023-01-29T02:18:23.535Z,100949.19
2023-01-29T02:21:25.653Z,100944.28
2023-01-29T02:24:34.720Z,100948.59
2023-01-29T02:27:16.247Z,100945.00
2023-01-29T02:30:04.774Z,100944.19
2023-01-29T02:32:54.952Z,100950.50
2023-01-29T02:35:33.841Z,100949.56
2023-01-29T02:38:24.133Z,100953.09
2023-01-29T02:41:00.896Z,100952.94
2023-01-29T02:43:41.204Z,100954.16
2023-01-29T02:46:23.769Z,100961.72
2023-01-29T02:49:08.088Z,100960.09
2023-01-29T02:51:46.968Z,100950.03
2023-01-29T02:54:26.123Z,100957.66
2023-01-29T02:57:02.725Z,100962.75
2023-01-29T02:59:42.034Z,100957.97
2023-01-29T03:02:22.373Z,100962.44
2023-01-29T03:05:06.649Z,100959.63
2023-01-29T03:07:45.253Z,100962.44
2023-01-29T03:10:23.330Z,100964.41
2023-01-29T03:13:01.062Z,100973.19
2023-01-29T03:15:43.158Z,100962.75
2023-01-29T03:18:20.630Z,100969.22
2023-01-29T03:20:59.349Z,100960.78
2023-01-29T03:23:50.951Z,100957.16
2023-01-29T03:26:41.251Z,100959.84
2023-01-29T03:29:31.498Z,100962.53
2023-01-29T03:32:07.909Z,100957.97
2023-01-29T03:34:46.297Z,100951.91
2023-01-29T03:37:24.691Z,100957.03
2023-01-29T03:39:55.907Z,100956.66
2023-01-29T03:42:32.032Z,100955.88
2023-01-29T03:45:15.879Z,100972.69
2023-01-29T03:47:52.668Z,100974.34
2023-01-29T03:50:39.079Z,100974.81
2023-01-29T03:53:21.153Z,100977.25
2023-01-29T03:56:01.556Z,100966.03
2023-01-29T03:58:44.977Z,100982.50
2023-01-29T04:01:23.158Z,100975.28
2023-01-29T04:04:04.324Z,100986.16
2023-01-29T04:06:43.393Z,100984.50
2023-01-29T04:09:22.683Z,100988.47
2023-01-29T04:12:03.293Z,100992.47
2023-01-29T04:14:35.062Z,101000.88
2023-01-29T04:17:14.937Z,101007.66
2023-01-29T04:19:45.770Z,101011.63
2023-01-29T04:22:25.078Z,100991.97
2023-01-29T04:24:55.156Z,100989.41
2023-01-29T04:27:37.543Z,101000.53
2023-01-29T04:30:26.292Z,100986.03
2023-01-29T04:33:19.366Z,100987.56
2023-01-29T04:36:11.995Z,100993.84
2023-01-29T04:39:01.598Z,101010.56
2023-01-29T04:41:40.096Z,101026.09
2023-01-29T04:44:23.273Z,101002.03
2023-01-29T04:47:06.946Z,100990.34
2023-01-29T04:49:48.047Z,100971.88
2023-01-29T04:52:38.448Z,100960.16
2023-01-29T04:55:22.990Z,100981.69
2023-01-29T04:58:05.886Z,101003.16
2023-01-29T05:00:41.005Z,101007.81
2023-01-29T05:03:14.395Z,101010.97
2023-01-29T05:05:49.424Z,100995.00
2023-01-29T05:08:24.364Z,100977.34
2023-01-29T05:11:00.193Z,100974.06
2023-01-29T05:13:34.689Z,100966.81
2023-01-29T05:16:11.446Z,100982.69
2023-01-29T05:18:41.442Z,100998.25
2023-01-29T05:21:12.236Z,100985.03
2023-01-29T05:23:59.777Z,100985.03
2023-01-29T05:26:48.591Z,100991.78
2023-01-29T05:29:18.514Z,100984.06
2023-01-29T05:31:48.825Z,100978.47
2023-01-29T05:34:19.106Z,100993.78
2023-01-29T05:36:49.359Z,100996.25
2023-01-29T05:39:20.014Z,101004.78
2023-01-29T05:41:52.308Z,101002.56
2023-01-29T05:44:22.732Z,101002.47
2023-01-29T05:46:53.829Z,101011.25
2023-01-29T05:49:24.441Z,101032.91
2023-01-29T05:51:54.483Z,101057.47
2023-01-29T05:54:24.461Z,101042.75
2023-01-29T05:56:56.669Z,101032.03
2023-01-29T05:59:26.459Z,101023.59
2023-01-29T06:01:56.584Z,101022.84
2023-01-29T06:04:26.966Z,101027.75
2023-01-29T06:07:03.461Z,101036.75
2023-01-29T06:09:33.263Z,101029.69
2023-01-29T06:12:06.675Z,101043.19
2023-01-29T06:14:37.131Z,101031.28
2023-01-29T06:17:07.408Z,101045.13
2023-01-29T06:19:37.205Z,101046.16
2023-01-29T06:22:07.131Z,101035.13
2023-01-29T06:24:36.918Z,101022.31
2023-01-29T06:27:09.297Z,101018.72
2023-01-29T06:29:39.802Z,100992.16
2023-01-29T06:32:10.106Z,100994.56
2023-01-29T06:34:40.251Z,100975.16
2023-01-29T06:37:11.141Z,100929.50
2023-01-29T06:39:40.960Z,100873.63
2023-01-29T06:42:12.240Z,100901.75
2023-01-29T06:44:42.584Z,100931.81
2023-01-29T06:47:12.845Z,100955.88
2023-01-29T06:49:42.961Z,100939.97
2023-01-29T06:52:13.166Z,100955.94
2023-01-29T06:54:43.108Z,100947.28
2023-01-29T06:57:15.330Z,100972.94
2023-01-29T06:59:48.062Z,100997.47
2023-01-29T07:02:18.764Z,101021.31
2023-01-29T07:04:49.167Z,101020.31
2023-01-29T07:07:19.455Z,101030.28
2023-01-29T07:09:49.883Z,101023.69
2023-01-29T07:12:22.232Z,101030.72
2023-01-29T07:14:52.753Z,101029.69
2023-01-29T07:17:22.417Z,101029.09
2023-01-29T07:19:52.493Z,101029.34
2023-01-29T07:22:22.306Z,101021.44
2023-01-29T07:24:52.923Z,101019.59
2023-01-29T07:27:25.103Z,101007.25
2023-01-29T07:29:55.337Z,101009.78
2023-01-29T07:32:25.457Z,101020.00
2023-01-29T07:34:55.775Z,101037.50
2023-01-29T07:37:26.112Z,101054.19
2023-01-29T07:39:55.840Z,101052.34
2023-01-29T07:42:28.233Z,101047.94
2023-01-29T07:44:58.442Z,101044.81
2023-01-29T07:47:28.869Z,101037.22
2023-01-29T07:49:59.242Z,101034.81
2023-01-29T07:52:29.638Z,101028.38
2023-01-29T07:55:00.174Z,101016.69
2023-01-29T07:57:31.992Z,101005.50
2023-01-29T08:00:02.020Z,101002.34
2023-01-29T08:02:32.330Z,100988.28
2023-01-29T08:05:02.679Z,100975.03
2023-01-29T08:07:32.947Z,100962.56
2023-01-29T08:10:03.279Z,100954.91
2023-01-29T08:12:35.334Z,100947.63
2023-01-29T08:15:06.102Z,100942.31
2023-01-29T08:20:33.681Z,100979.03
2023-01-29T08:23:05.220Z,100990.44
2023-01-29T08:25:37.023Z,100986.53
2023-01-29T08:28:10.086Z,100998.03
2023-01-29T08:30:40.946Z,100990.09
2023-01-29T08:33:11.314Z,100963.53
2023-01-29T08:35:41.636Z,100952.31
2023-01-29T08:38:13.084Z,100942.31
2023-01-29T08:40:43.264Z,100923.75
2023-01-29T08:43:16.301Z,100913.63
2023-01-29T08:45:46.904Z,100920.88
2023-01-29T08:48:17.156Z,100914.38
2023-01-29T08:50:47.498Z,100905.53
2023-01-29T08:53:19.914Z,100900.31
2023-01-29T08:55:50.323Z,100880.91
2023-01-29T08:58:22.335Z,100872.84
2023-01-29T09:00:53.131Z,100872.84
2023-01-29T09:03:22.905Z,100880.53
2023-01-29T09:05:52.735Z,100887.41
2023-01-29T09:08:23.144Z,100890.22
2023-01-29T09:10:53.506Z,100894.25
2023-01-29T09:13:25.509Z,100897.53
2023-01-29T09:15:55.510Z,100901.16
2023-01-29T09:18:26.544Z,100897.13
2023-01-29T09:20:56.597Z,100900.75
2023-01-29T09:23:27.219Z,100914.09
2023-01-29T09:25:57.003Z,100910.06
2023-01-29T09:28:30.081Z,100912.50
2023-01-29T09:31:03.885Z,100903.66
2023-01-29T09:33:34.272Z,100893.91
2023-01-29T09:36:06.053Z,100873.63
2023-01-29T09:38:35.961Z,100877.22
2023-01-29T09:41:23.785Z,100876.75
2023-01-29T09:44:02.095Z,100872.56
2023-01-29T09:46:43.193Z,100857.56
2023-01-29T09:49:23.243Z,100853.91
2023-01-29T09:51:59.580Z,100850.59
2023-01-29T09:54:38.308Z,100852.19
2023-01-29T09:57:16.217Z,100871.97
2023-01-29T09:59:48.664Z,100859.00
2023-01-29T10:02:52.958Z,100852.91
2023-01-29T10:05:40.171Z,100830.25
2023-01-29T10:08:44.167Z,100814.91
2023-01-29T10:11:30.138Z,100807.97
2023-01-29T10:14:16.473Z,100798.66
2023-01-29T10:17:10.712Z,100789.31
2023-01-29T10:20:22.313Z,100785.66
2023-01-29T10:23:07.445Z,100798.94
2023-01-29T10:25:44.108Z,100809.81
2023-01-29T10:28:22.600Z,100819.44
2023-01-29T10:30:57.234Z,100839.19
2023-01-29T10:33:49.256Z,100827.44
2023-01-29T10:36:39.243Z,100789.03
2023-01-29T10:39:19.129Z,100762.78
2023-01-29T10:42:08.266Z,100780.47
2023-01-29T10:44:55.929Z,100777.63
2023-01-29T10:48:37.852Z,100759.00
2023-01-29T10:51:28.386Z,100778.72
2023-01-29T10:54:21.783Z,100768.63
2023-01-29T10:57:12.683Z,100766.97
2023-01-29T11:00:02.148Z,100771.44
2023-01-29T11:02:32.175Z,100776.63
2023-01-29T11:05:02.278Z,100787.13
2023-01-29T11:07:34.597Z,100776.63
2023-01-29T11:10:16.911Z,100779.84
2023-01-29T11:12:48.868Z,100762.84
2023-01-29T11:15:26.549Z,100757.56
2023-01-29T11:18:10.999Z,100768.44
2023-01-29T11:20:41.249Z,100760.31
2023-01-29T11:23:29.613Z,100745.31
2023-01-29T11:26:02.160Z,100737.56
2023-01-29T11:28:41.757Z,100739.13
2023-01-29T11:31:31.868Z,100739.09
2023-01-29T11:34:09.192Z,100742.31
2023-01-29T11:36:41.604Z,100743.09
2023-01-29T11:39:23.934Z,100736.66
2023-01-29T11:41:59.767Z,100719.72
2023-01-29T11:44:37.056Z,100712.44
2023-01-29T11:47:24.405Z,100692.25
2023-01-29T11:49:58.063Z,100691.03
2023-01-29T11:52:38.373Z,100680.50
2023-01-29T11:55:22.150Z,100708.28
2023-01-29T11:57:59.701Z,100711.88
2023-01-29T12:00:34.010Z,100710.59
2023-01-29T12:03:14.521Z,100717.06
2023-01-29T12:05:57.028Z,100706.59
2023-01-29T12:08:27.523Z,100705.78
2023-01-29T12:11:12.872Z,100714.25
2023-01-29T12:13:45.536Z,100711.00
2023-01-29T12:16:25.807Z,100716.19
2023-01-29T12:19:08.565Z,100707.69
2023-01-29T12:21:49.929Z,100710.91
2023-01-29T12:24:36.033Z,100697.16
2023-01-29T12:27:20.659Z,100697.91
2023-01-29T12:29:58.684Z,100707.91
2023-01-29T12:32:41.266Z,100715.97
2023-01-29T12:35:23.649Z,100708.25
2023-01-29T12:38:03.325Z,100723.09
2023-01-29T12:40:41.606Z,100713.78
2023-01-29T12:43:20.388Z,100712.91
2023-01-29T12:45:58.306Z,100731.41
2023-01-29T12:48:35.592Z,100737.81
2023-01-29T12:51:11.894Z,100734.53
2023-01-29T12:53:50.438Z,100738.53
2023-01-29T12:56:32.034Z,100703.47
2023-01-29T12:59:17.996Z,100676.84
2023-01-29T13:01:56.004Z,100668.78
2023-01-29T13:04:40.995Z,100686.50
2023-01-29T13:07:20.884Z,100685.69
2023-01-29T13:09:57.307Z,100699.78
2023-01-29T13:12:28.756Z,100715.44
2023-01-29T13:15:06.649Z,100711.38
2023-01-29T13:17:43.604Z,100722.22
2023-01-29T13:20:21.983Z,100728.63
2023-01-29T13:22:57.048Z,100712.06
2023-01-29T13:25:27.651Z,100732.97
2023-01-29T13:27:58.313Z,100728.13
2023-01-29T13:30:38.029Z,100725.66
2023-01-29T13:33:12.826Z,100721.97
2023-01-29T13:35:47.695Z,100735.25
2023-01-29T13:38:30.432Z,100718.72
2023-01-29T13:41:06.664Z,100704.19
2023-01-29T13:43:42.231Z,100704.56
2023-01-29T13:46:21.796Z,100722.56
2023-01-29T13:48:58.602Z,100746.31
2023-01-29T13:51:39.723Z,100755.50
2023-01-29T13:54:20.141Z,100756.22
2023-01-29T13:57:02.004Z,100737.28
2023-01-29T13:59:56.742Z,100726.75
2023-01-29T14:02:31.952Z,100724.31
2023-01-29T14:05:43.316Z,100733.50
2023-01-29T14:08:48.368Z,100746.34
2023-01-29T14:11:38.338Z,100723.75
2023-01-29T14:14:53.384Z,100705.22
2023-01-29T14:17:24.441Z,100703.94
2023-01-29T14:20:21.350Z,100713.59
2023-01-29T14:23:00.824Z,100720.41
2023-01-29T14:25:35.448Z,100725.59
2023-01-29T14:28:16.812Z,100734.06
2023-01-29T14:30:51.680Z,100745.72
2023-01-29T14:33:36.012Z,100739.25
2023-01-29T14:36:16.759Z,100742.44
2023-01-29T14:38:53.883Z,100735.97
2023-01-29T14:41:31.783Z,100747.63
2023-01-29T14:45:05.640Z,100753.19
2023-01-29T14:48:21.968Z,100756.28
2023-01-29T14:51:09.663Z,100761.06
2023-01-29T14:54:06.311Z,100752.16
2023-01-29T14:56:42.456Z,100747.25
2023-01-29T14:59:24.666Z,100726.75
2023-01-29T15:01:58.495Z,100729.91
2023-01-29T15:04:33.563Z,100731.09
2023-01-29T15:07:14.893Z,100731.09
2023-01-29T15:10:01.292Z,100728.66
2023-01-29T15:12:44.806Z,100746.75
2023-01-29T15:15:23.127Z,100743.13
2023-01-29T15:18:03.999Z,100740.31
2023-01-29T15:20:37.843Z,100733.41
2023-01-29T15:23:28.980Z,100757.91
2023-01-29T15:26:04.189Z,100751.03
2023-01-29T15:28:37.137Z,100747.75
2023-01-29T15:31:14.921Z,100723.16
2023-01-29T15:33:49.677Z,100727.97
2023-01-29T15:36:26.178Z,100749.25
2023-01-29T15:39:19.597Z,100753.59
2023-01-29T15:41:53.973Z,100754.34
2023-01-29T15:44:25.830Z,100771.16
2023-01-29T15:46:59.675Z,100778.69
2023-01-29T15:49:40.456Z,100767.00
2023-01-29T15:52:20.510Z,100756.50
2023-01-29T15:54:51.238Z,100758.41
2023-01-29T15:57:34.601Z,100776.09
2023-01-29T16:00:07.048Z,100777.63
2023-01-29T16:02:43.688Z,100780.38
2023-01-29T16:05:21.024Z,100760.59
2023-01-29T16:07:53.604Z,100737.66
2023-01-29T16:10:26.597Z,100713.88
2023-01-29T16:12:59.510Z,100721.50
2023-01-29T16:15:36.339Z,100744.00
2023-01-29T16:18:22.939Z,100749.63
2023-01-29T16:20:57.118Z,100754.00
2023-01-29T16:23:31.585Z,100745.56
2023-01-29T16:26:08.748Z,100733.50
2023-01-29T16:28:46.190Z,100723.44
2023-01-29T16:31:23.709Z,100747.91
2023-01-29T16:33:54.336Z,100740.66
2023-01-29T16:36:27.972Z,100760.34
2023-01-29T16:39:02.230Z,100779.97
2023-01-29T16:41:36.320Z,100805.28
2023-01-29T16:44:37.557Z,100804.00
2023-01-29T16:47:17.566Z,100797.94
2023-01-29T16:49:53.518Z,100798.31
2023-01-29T16:52:28.693Z,100786.59
2023-01-29T16:55:23.131Z,100779.69
2023-01-29T16:57:58.262Z,100793.28
2023-01-29T17:00:34.550Z,100801.72
2023-01-29T17:03:09.658Z,100747.50
2023-01-29T17:05:41.274Z,100718.53
2023-01-29T17:08:20.930Z,100728.16
2023-01-29T17:10:51.589Z,100766.72
2023-01-29T17:13:30.157Z,100813.69
2023-01-29T17:16:18.947Z,100833.75
2023-01-29T17:18:48.742Z,100840.09
2023-01-29T17:21:19.058Z,100847.72
2023-01-29T17:23:48.732Z,100811.50
2023-01-29T17:26:19.793Z,100759.31
2023-01-29T17:28:53.591Z,100774.16
2023-01-29T17:31:25.912Z,100782.97
2023-01-29T17:33:55.709Z,100767.28
2023-01-29T17:36:26.141Z,100770.44
2023-01-29T17:38:56.319Z,100786.50
2023-01-29T17:41:31.414Z,100792.94
2023-01-29T17:44:01.204Z,100809.38
2023-01-29T17:46:33.114Z,100817.06
2023-01-29T17:49:04.886Z,100811.00
2023-01-29T17:51:34.750Z,100820.25
2023-01-29T17:54:05.183Z,100804.16
2023-01-29T17:56:35.775Z,100807.81
2023-01-29T17:59:15.586Z,100814.63
2023-01-29T18:01:48.655Z,100823.06
2023-01-29T18:04:20.097Z,100813.81
2023-01-29T18:06:53.748Z,100809.00
2023-01-29T18:09:25.082Z,100823.06
2023-01-29T18:11:55.978Z,100838.75
2023-01-29T18:14:26.116Z,100854.78
2023-01-29T18:16:58.269Z,100839.13
2023-01-29T18:19:31.609Z,100786.88
2023-01-29T18:22:02.214Z,100807.72
2023-01-29T18:24:32.574Z,100815.34
2023-01-29T18:27:02.276Z,100802.09
2023-01-29T18:29:32.682Z,100806.91
2023-01-29T18:32:04.919Z,100825.41
2023-01-29T18:34:35.046Z,100822.59
2023-01-29T18:37:04.794Z,100819.78
2023-01-29T18:39:35.138Z,100823.44
2023-01-29T18:42:06.099Z,100827.41
2023-01-29T18:44:36.781Z,100827.41
2023-01-29T18:47:08.971Z,100851.09
2023-01-29T18:49:39.557Z,100819.69
2023-01-29T18:52:10.986Z,100830.94
2023-01-29T18:54:42.204Z,100831.31
2023-01-29T18:57:15.016Z,100832.13
2023-01-29T19:00:03.261Z,100829.69
2023-01-29T19:02:36.869Z,100837.75
2023-01-29T19:05:08.198Z,100827.66
2023-01-29T19:07:38.762Z,100821.25
2023-01-29T19:10:13.010Z,100820.78
2023-01-29T19:12:43.548Z,100826.41
2023-01-29T19:15:15.356Z,100819.97
2023-01-29T19:17:48.464Z,100817.16
2023-01-29T19:20:19.741Z,100817.50
2023-01-29T19:22:51.320Z,100825.94
2023-01-29T19:25:22.291Z,100831.94
2023-01-29T19:27:52.636Z,100820.25
2023-01-29T19:30:23.161Z,100820.94
2023-01-29T19:32:57.867Z,100815.69
2023-01-29T19:35:29.293Z,100818.88
2023-01-29T19:37:59.662Z,100812.44
2023-01-29T19:40:30.271Z,100818.06
2023-01-29T19:43:00.874Z,100820.06
2023-01-29T19:45:49.182Z,100816.41
2023-01-29T19:48:22.117Z,100821.22
2023-01-29T19:50:56.779Z,100813.97
2023-01-29T19:53:27.408Z,100815.53
2023-01-29T19:56:03.355Z,100820.31
2023-01-29T19:58:35.391Z,100823.13
2023-01-29T20:01:08.683Z,100825.47
2023-01-29T20:03:42.277Z,100838.72
2023-01-29T20:06:12.679Z,100831.84
2023-01-29T20:08:42.828Z,100834.97
2023-01-29T20:11:15.212Z,100823.75
2023-01-29T20:13:46.398Z,100822.13
2023-01-29T20:16:16.816Z,100822.47
2023-01-29T20:18:48.743Z,100824.50
2023-01-29T20:21:21.585Z,100834.91
2023-01-29T20:23:53.416Z,100833.25
2023-01-29T20:26:24.174Z,100837.69
2023-01-29T20:28:54.598Z,100835.25
2023-01-29T20:31:25.011Z,100839.25
2023-01-29T20:33:56.984Z,100836.34
2023-01-29T20:36:27.465Z,100833.06
2023-01-29T20:38:57.585Z,100828.13
2023-01-29T20:41:28.633Z,100824.06
2023-01-29T20:43:58.615Z,100823.97
2023-01-29T20:46:29.070Z,100820.69
2023-01-29T20:49:01.475Z,100829.84
2023-01-29T20:51:31.849Z,100822.13
2023-01-29T20:54:02.434Z,100822.03
2023-01-29T20:56:36.732Z,100817.13
2023-01-29T20:59:15.240Z,100806.59
2023-01-29T21:01:46.628Z,100804.16
2023-01-29T21:04:18.892Z,100808.16
2023-01-29T21:06:48.625Z,100806.50
2023-01-29T21:09:18.403Z,100806.03
2023-01-29T21:11:48.844Z,100809.22
2023-01-29T21:14:19.310Z,100809.22
2023-01-29T21:16:49.750Z,100808.41
2023-01-29T21:19:21.632Z,100796.34
2023-01-29T21:21:51.335Z,100807.97
2023-01-29T21:24:21.636Z,100813.09
2023-01-29T21:26:51.436Z,100805.06
2023-01-29T21:29:21.769Z,100802.94
2023-01-29T21:31:51.731Z,100804.81
2023-01-29T21:34:23.738Z,100797.13
2023-01-29T21:36:54.670Z,100793.88
2023-01-29T21:39:27.465Z,100795.75
2023-01-29T21:42:14.383Z,100784.03
2023-01-29T21:44:44.499Z,100792.38
2023-01-29T21:47:15.032Z,100793.53
2023-01-29T21:49:47.299Z,100791.94
2023-01-29T21:52:18.484Z,100805.50
2023-01-29T21:54:49.287Z,100791.00
2023-01-29T21:57:19.686Z,100803.41
2023-01-29T21:59:52.830Z,100797.41
2023-01-29T22:02:26.819Z,100796.63
2023-01-29T22:05:19.736Z,100791.00
2023-01-29T22:07:51.210Z,100782.94
2023-01-29T22:10:22.182Z,100784.13
2023-01-29T22:12:52.837Z,100780.34
2023-01-29T22:15:24.096Z,100782.69
2023-01-29T22:17:54.949Z,100782.59
2023-01-29T22:20:30.535Z,100784.13
2023-01-29T22:23:01.850Z,100780.03
2023-01-29T22:25:32.727Z,100776.41
2023-01-29T22:28:02.733Z,100775.59
2023-01-29T22:30:32.776Z,100777.09
2023-01-29T22:33:03.495Z,100769.06
2023-01-29T22:35:36.040Z,100764.59
2023-01-29T22:38:06.870Z,100762.97
2023-01-29T22:40:37.819Z,100762.53
2023-01-29T22:43:08.476Z,100760.44
2023-01-29T22:45:42.828Z,100762.41
2023-01-29T22:48:13.309Z,100764.41
2023-01-29T22:50:53.338Z,100760.44
2023-01-29T22:53:23.310Z,100762.78
2023-01-29T22:55:57.437Z,100760.81
2023-01-29T22:58:27.886Z,100755.88
2023-01-29T23:00:58.098Z,100750.63
2023-01-29T23:03:28.943Z,100757.41
2023-01-29T23:06:01.297Z,100748.53
2023-01-29T23:08:31.611Z,100739.66
2023-01-29T23:11:14.839Z,100743.16
2023-01-29T23:13:47.554Z,100743.88
2023-01-29T23:16:20.429Z,100741.41
2023-01-29T23:18:55.434Z,100745.75
2023-01-29T23:21:29.407Z,100741.31
2023-01-29T23:24:01.940Z,100736.88
2023-01-29T23:26:49.422Z,100736.41
2023-01-29T23:29:19.792Z,100730.38
2023-01-29T23:31:50.708Z,100733.97
2023-01-29T23:34:21.258Z,100731.53
2023-01-29T23:36:53.140Z,100731.06
2023-01-29T23:39:23.546Z,100724.19
2023-01-29T23:41:53.622Z,100727.69
2023-01-29T23:44:23.389Z,100723.25
2023-01-29T23:46:54.195Z,100724.41
2023-01-29T23:49:25.066Z,100721.13
2023-01-29T23:51:56.330Z,100720.34
2023-01-29T23:54:26.888Z,100720.69
2023-01-29T23:56:57.477Z,100725.84
2023-01-29T23:59:30.873Z,100717.75
